Time;durP1;ratioP1;P1;durP2;ratioP2;P2;SDS_P1;SDS_P2;PMS_P1;PMS_P2;Temp;Humidity;BMP_temperature;BMP_pressure;BME280_temperature;BME280_humidity;BME280_pressure;Samples;Min_cycle;Max_cycle;Signal;HPM_P1;HPM_P2
2023/03/21 00:01:52;;;;;;;15.40;7.05;;;;;;;9.92;84.32;101559.50;5069292;28;20076;-72
2023/03/21 00:04:25;;;;;;;12.93;7.47;;;;;;;9.92;84.55;101561.28;5068626;28;20068;-72
2023/03/21 00:06:55;;;;;;;17.42;7.40;;;;;;;9.90;84.53;101555.16;5068492;28;20130;-73
2023/03/21 00:09:23;;;;;;;14.25;7.07;;;;;;;9.88;84.90;101546.41;5067672;28;20071;-72
2023/03/21 00:11:50;;;;;;;14.77;7.15;;;;;;;9.88;84.99;101552.56;5066150;28;20037;-73
2023/03/21 00:14:19;;;;;;;13.52;7.90;;;;;;;9.88;85.09;101547.28;5067312;28;20883;-73
2023/03/21 00:16:49;;;;;;;15.93;7.20;;;;;;;9.87;85.12;101548.19;5068952;28;20056;-73
2023/03/21 00:19:20;;;;;;;16.52;7.88;;;;;;;9.86;85.31;101546.44;5067736;28;20103;-72
2023/03/21 00:21:51;;;;;;;14.77;7.65;;;;;;;9.85;85.24;101541.22;5067706;28;20084;-72
2023/03/21 00:24:36;;;;;;;15.95;8.45;;;;;;;9.84;85.32;101532.41;5067857;28;20045;-72
2023/03/21 00:27:04;;;;;;;18.92;8.63;;;;;;;9.83;85.32;101535.94;5066836;28;20049;-72
2023/03/21 00:29:54;;;;;;;16.33;8.48;;;;;;;9.82;85.39;101530.72;5067299;28;20045;-73
2023/03/21 00:32:21;;;;;;;19.20;8.95;;;;;;;9.83;85.64;101530.69;5069207;28;20123;-73
2023/03/21 00:34:49;;;;;;;14.48;8.48;;;;;;;9.78;85.63;101525.47;5068270;28;20099;-74
2023/03/21 00:37:36;;;;;;;12.88;9.27;;;;;;;9.74;86.00;101526.44;5066492;28;20441;-75
2023/03/21 00:40:10;;;;;;;13.07;9.02;;;;;;;9.72;86.01;101528.22;5067355;28;20063;-75
2023/03/21 00:42:51;;;;;;;19.02;9.57;;;;;;;9.67;86.07;101519.53;5048710;28;20055;-76
2023/03/21 00:45:20;;;;;;;19.58;9.73;;;;;;;9.66;86.23;101523.06;5064993;28;20489;-75
2023/03/21 00:47:47;;;;;;;17.70;10.52;;;;;;;9.62;86.46;101514.31;5056948;28;20049;-76
2023/03/21 00:50:15;;;;;;;17.60;9.38;;;;;;;9.60;86.41;101517.88;5069346;28;20119;-75
2023/03/21 00:52:42;;;;;;;18.88;10.70;;;;;;;9.59;86.71;101522.28;5066725;28;20905;-75
2023/03/21 00:55:16;;;;;;;21.45;10.13;;;;;;;9.58;86.65;101519.66;5059356;28;20041;-75
2023/03/21 00:57:44;;;;;;;18.90;10.27;;;;;;;9.58;86.76;101514.41;5067874;28;20880;-75
2023/03/21 01:00:19;;;;;;;20.33;10.75;;;;;;;9.58;86.87;101514.41;5067667;28;20124;-75
2023/03/21 01:02:55;;;;;;;21.10;10.95;;;;;;;9.58;87.05;101511.75;5068445;28;20513;-75
2023/03/21 01:08:27;;;;;;;17.52;10.40;;;;;;;9.56;87.06;101508.31;5062367;28;20037;-75
2023/03/21 01:11:14;;;;;;;19.08;11.18;;;;;;;9.53;87.17;101497.81;5067809;28;20052;-75
2023/03/21 01:13:44;;;;;;;22.63;11.35;;;;;;;9.55;87.60;101498.69;5067082;28;20091;-75
2023/03/21 01:16:24;;;;;;;19.98;11.07;;;;;;;9.54;87.75;101496.94;5063764;28;20106;-75
2023/03/21 01:18:51;;;;;;;19.42;11.38;;;;;;;9.53;87.92;101496.03;5082704;28;20075;-74
2023/03/21 01:21:19;;;;;;;18.35;11.63;;;;;;;9.52;87.84;101496.94;5066532;28;20087;-75
2023/03/21 01:23:46;;;;;;;20.27;11.57;;;;;;;9.52;88.03;101488.19;5067742;28;20099;-74
2023/03/21 01:26:14;;;;;;;19.23;11.27;;;;;;;9.52;88.01;101490.81;5067911;28;20045;-73
2023/03/21 01:28:44;;;;;;;22.70;11.23;;;;;;;9.52;88.05;101485.56;5077908;28;20089;-73
2023/03/21 01:31:15;;;;;;;20.63;11.27;;;;;;;9.55;88.34;101480.25;5067839;28;20037;-74
2023/03/21 01:33:44;;;;;;;20.27;11.35;;;;;;;9.53;88.22;101480.25;5063733;28;20041;-74
2023/03/21 01:36:20;;;;;;;20.42;10.48;;;;;;;9.54;88.00;101481.13;5065361;28;20497;-74
2023/03/21 01:38:53;;;;;;;18.95;10.60;;;;;;;9.54;88.14;101474.09;5066992;28;20861;-72
2023/03/21 01:41:39;;;;;;;17.80;10.88;;;;;;;9.57;88.13;101470.53;5067053;28;20521;-72
2023/03/21 01:44:25;;;;;;;20.75;10.73;;;;;;;9.58;88.35;101473.16;5063852;28;20497;-72
2023/03/21 01:46:53;;;;;;;16.98;9.93;;;;;;;9.58;88.22;101473.16;5065950;28;20044;-72
2023/03/21 01:49:51;;;;;;;18.35;10.48;;;;;;;9.59;88.41;101476.66;5052104;28;21089;-73
2023/03/21 01:52:27;;;;;;;18.42;10.25;;;;;;;9.58;88.12;101467.91;5047816;28;20468;-72
2023/03/21 01:55:13;;;;;;;17.60;9.80;;;;;;;9.58;88.49;101467.91;5083066;28;20744;-73
2023/03/21 01:57:55;;;;;;;23.20;10.10;;;;;;;9.60;88.30;101467.88;5082345;28;20099;-72
2023/03/21 02:01:09;;;;;;;15.85;9.50;;;;;;;9.59;88.31;101460.84;5061955;28;20056;-72
2023/03/21 02:03:49;;;;;;;20.45;9.70;;;;;;;9.62;88.39;101452.91;5062453;28;20120;-72
2023/03/21 02:07:06;;;;;;;18.15;9.90;;;;;;;9.64;87.98;101449.38;5083705;28;20049;-72
2023/03/21 02:09:49;;;;;;;18.73;8.77;;;;;;;9.64;88.28;101437.97;5082413;28;20075;-72
2023/03/21 02:12:20;;;;;;;23.48;9.20;;;;;;;9.64;88.40;101433.56;5067225;28;20075;-74
2023/03/21 02:14:50;;;;;;;20.33;8.43;;;;;;;9.66;88.24;101430.03;5062239;28;20111;-72
2023/03/21 02:18:14;;;;;;;12.85;8.77;;;;;;;9.65;88.30;101426.56;5066681;28;20464;-73
2023/03/21 02:21:45;;;;;;;20.98;9.50;;;;;;;9.67;88.04;101426.50;5056578;28;20103;-73
2023/03/21 02:24:52;;;;;;;20.92;9.60;;;;;;;9.67;88.17;101422.09;5064160;28;20041;-73
2023/03/21 02:27:46;;;;;;;18.95;9.38;;;;;;;9.66;88.12;101416.88;5082021;28;20128;-73
2023/03/21 02:30:37;;;;;;;16.42;9.02;;;;;;;9.67;88.03;101421.25;5046922;28;20049;-73
2023/03/21 02:34:08;;;;;;;18.40;9.70;;;;;;;9.64;88.02;101417.78;5062604;28;20056;-74
2023/03/21 02:37:06;;;;;;;15.32;9.15;;;;;;;9.62;88.14;101411.66;5062456;28;20186;-71
2023/03/21 02:40:18;;;;;;;14.40;8.55;;;;;;;9.61;88.33;101411.69;5047296;28;20046;-72
2023/03/21 02:43:12;;;;;;;15.20;8.88;;;;;;;9.60;88.23;101412.59;5018598;28;20654;-72
2023/03/21 02:46:15;;;;;;;16.20;9.10;;;;;;;9.58;88.32;101412.63;5062481;28;20049;-72
2023/03/21 02:48:59;;;;;;;15.77;8.65;;;;;;;9.55;88.36;101402.13;5064468;28;20037;-72
2023/03/21 02:51:31;;;;;;;20.10;9.32;;;;;;;9.56;88.07;101408.28;5065658;28;20748;-72
2023/03/21 02:54:06;;;;;;;18.00;8.60;;;;;;;9.53;88.32;101400.44;5063091;28;20041;-73
2023/03/21 02:56:57;;;;;;;;;;;;;;;9.50;88.16;101398.72;5065039;28;20103;-72
2023/03/21 02:59:27;;;;;;;15.18;8.63;;;;;;;9.50;88.32;101393.47;5056983;28;20559;-72
2023/03/21 03:01:59;;;;;;;14.82;8.70;;;;;;;9.50;88.44;101400.47;5065377;28;20480;-72
2023/03/21 03:04:27;;;;;;;18.92;9.10;;;;;;;9.49;88.37;101391.72;5063803;28;20489;-72
2023/03/21 03:06:57;;;;;;;14.10;8.85;;;;;;;9.48;88.63;101389.97;5062826;28;20060;-73
2023/03/21 03:09:47;;;;;;;17.05;9.13;;;;;;;9.48;88.63;101390.84;5076480;28;20037;-73
2023/03/21 03:12:36;;;;;;;17.05;8.80;;;;;;;9.47;88.96;101397.00;5084607;28;20052;-73
2023/03/21 03:15:46;;;;;;;18.95;9.00;;;;;;;9.48;88.58;101392.63;5081047;28;20091;-73
2023/03/21 03:18:44;;;;;;;19.80;9.00;;;;;;;9.47;88.60;101388.25;5068494;28;20037;-73
2023/03/21 03:21:46;;;;;;;16.42;8.70;;;;;;;9.46;88.53;101391.75;5069365;28;20045;-73
2023/03/21 03:24:52;;;;;;;16.55;9.13;;;;;;;9.45;88.77;101387.41;5067045;28;20037;-73
2023/03/21 03:27:31;;;;;;;14.98;8.35;;;;;;;9.44;88.77;101390.91;5050454;28;20132;-73
2023/03/21 03:30:06;;;;;;;15.80;8.45;;;;;;;9.43;88.65;101389.19;5067314;28;20045;-73
2023/03/21 03:32:47;;;;;;;20.73;9.50;;;;;;;9.45;88.52;101384.75;5066119;28;20191;-73
2023/03/21 03:35:19;;;;;;;16.75;9.10;;;;;;;9.45;88.47;101388.28;5065130;28;20042;-73
2023/03/21 03:37:55;;;;;;;16.60;9.43;;;;;;;9.43;88.63;101379.53;5049706;28;20137;-73
2023/03/21 03:40:48;;;;;;;16.45;8.82;;;;;;;9.43;88.68;101378.66;5065884;28;20045;-72
2023/03/21 03:43:42;;;;;;;17.15;9.05;;;;;;;9.38;88.72;101375.25;5066689;28;20048;-73
2023/03/21 03:46:20;;;;;;;15.55;8.82;;;;;;;9.36;88.71;101372.63;5069021;28;20493;-72
2023/03/21 03:49:18;;;;;;;17.10;9.30;;;;;;;9.36;88.78;101377.88;5061509;28;20122;-72
2023/03/21 03:52:02;;;;;;;17.90;9.48;;;;;;;9.36;88.95;101377.03;5063752;28;20507;-73
2023/03/21 03:54:43;;;;;;;18.40;9.20;;;;;;;9.33;88.75;101370.91;5066228;28;20041;-72
2023/03/21 03:57:12;;;;;;;16.48;9.20;;;;;;;9.34;88.98;101363.91;5069047;28;20059;-72
2023/03/21 03:59:44;;;;;;;17.75;8.93;;;;;;;9.32;89.02;101365.69;5066700;28;20036;-72
2023/03/21 04:02:22;;;;;;;18.20;9.52;;;;;;;9.32;88.80;101371.81;5064919;28;20076;-72
2023/03/21 04:04:52;;;;;;;16.65;9.00;;;;;;;9.32;88.94;101366.53;5059242;28;20053;-74
2023/03/21 04:07:21;;;;;;;17.63;8.75;;;;;;;9.32;88.92;101365.69;5069123;28;20092;-74
2023/03/21 04:09:50;;;;;;;15.95;8.68;;;;;;;9.32;88.87;101365.69;5062876;28;20053;-74
2023/03/21 04:12:19;;;;;;;17.85;8.77;;;;;;;9.33;88.85;101372.69;5066034;28;20045;-73
2023/03/21 04:15:22;;;;;;;16.27;8.30;;;;;;;9.31;88.93;101364.81;5062588;28;20045;-73
2023/03/21 04:18:14;;;;;;;19.30;9.25;;;;;;;9.31;88.77;101363.94;5067434;28;20053;-75
2023/03/21 04:21:02;;;;;;;16.10;8.75;;;;;;;9.30;88.95;101365.72;5065892;28;20115;-75
2023/03/21 04:23:49;;;;;;;19.02;9.00;;;;;;;9.28;89.15;101371.88;5072140;28;20071;-75
2023/03/21 04:26:38;;;;;;;18.73;9.30;;;;;;;9.28;89.05;101364.00;5066043;28;20503;-75
2023/03/21 04:29:48;;;;;;;19.95;9.45;;;;;;;9.24;89.18;101355.28;5066214;28;20075;-75
2023/03/21 04:32:55;;;;;;;;;;;;;;;9.15;89.37;101351.06;5051704;28;20713;-74
2023/03/21 04:35:44;;;;;;;16.05;8.95;;;;;;;9.12;89.75;101350.22;5093489;28;20401;-75
2023/03/21 04:38:32;;;;;;;21.65;9.10;;;;;;;9.09;90.04;101350.28;5080004;28;20092;-74
2023/03/21 04:41:21;;;;;;;15.80;9.00;;;;;;;9.07;90.36;101349.44;5064645;28;20052;-73
2023/03/21 04:44:10;;;;;;;20.15;8.98;;;;;;;9.04;90.45;101346.84;5066586;28;20148;-73
2023/03/21 04:46:57;;;;;;;19.63;9.30;;;;;;;8.99;90.90;101347.81;5064733;28;20072;-73
2023/03/21 04:49:44;;;;;;;20.30;9.25;;;;;;;8.98;91.26;101342.53;5064340;28;20069;-72
2023/03/21 04:52:16;;;;;;;24.00;9.23;;;;;;;8.95;91.59;101335.59;5048340;28;21867;-72
2023/03/21 04:54:54;;;;;;;18.65;9.48;;;;;;;8.94;91.59;101336.47;5077340;28;20044;-72
2023/03/21 04:57:41;;;;;;;19.48;8.40;;;;;;;8.94;91.66;101333.84;5064228;28;20587;-73
2023/03/21 05:00:28;;;;;;;20.40;9.23;;;;;;;8.94;91.78;101333.84;5078647;28;20056;-73
2023/03/21 05:03:18;;;;;;;20.65;9.35;;;;;;;8.93;92.11;101326.00;5063910;28;20049;-72
2023/03/21 05:06:08;;;;;;;22.77;9.15;;;;;;;8.92;92.35;101324.25;5064991;28;20052;-72
2023/03/21 05:09:00;;;;;;;21.05;8.70;;;;;;;8.92;92.48;101330.34;5063133;28;20061;-72
2023/03/21 05:11:48;;;;;;;18.35;9.43;;;;;;;8.91;92.45;101326.00;5064088;28;20041;-73
2023/03/21 05:14:36;;;;;;;19.73;9.10;;;;;;;8.91;92.58;101325.13;5066275;28;20049;-74
2023/03/21 05:17:27;;;;;;;22.45;9.00;;;;;;;8.92;92.58;101334.75;5066640;28;20146;-74
2023/03/21 05:20:16;;;;;;;22.50;10.15;;;;;;;8.92;92.90;101329.50;5064244;28;20049;-73
2023/03/21 05:23:03;;;;;;;20.05;9.73;;;;;;;8.92;92.84;101327.72;5054379;28;20496;-73
2023/03/21 05:25:50;;;;;;;19.15;8.65;;;;;;;8.91;93.07;101326.00;5067112;28;20053;-74
2023/03/21 05:28:48;;;;;;;19.23;9.40;;;;;;;8.92;92.73;101327.72;5061427;28;20045;-73
2023/03/21 05:31:35;;;;;;;17.48;8.43;;;;;;;8.96;92.66;101331.19;5065912;28;20071;-72
2023/03/21 05:34:28;;;;;;;21.05;9.05;;;;;;;8.96;92.70;101326.81;5058878;28;20045;-72
2023/03/21 05:37:15;;;;;;;16.90;8.80;;;;;;;8.96;92.79;101328.53;5063377;28;20898;-73
2023/03/21 05:40:08;;;;;;;16.20;8.32;;;;;;;8.98;92.83;101326.78;5064612;28;20508;-72
2023/03/21 05:42:58;;;;;;;16.02;8.35;;;;;;;8.99;92.83;101320.63;5062868;28;20461;-72
2023/03/21 05:45:47;;;;;;;16.52;8.45;;;;;;;9.00;92.62;101320.59;5063754;28;20049;-72
2023/03/21 05:48:37;;;;;;;14.60;8.50;;;;;;;9.00;92.65;101312.69;5057582;28;20049;-71
2023/03/21 05:51:32;;;;;;;18.20;8.30;;;;;;;9.06;92.62;101316.97;5061732;28;20078;-72
2023/03/21 05:54:20;;;;;;;17.08;6.90;;;;;;;9.13;93.11;101305.50;5060920;28;20112;-73
2023/03/21 05:57:08;;;;;;;13.68;6.70;;;;;;;9.39;94.46;101300.66;5058631;28;20102;-73
2023/03/21 06:00:20;;;;;;;15.50;8.20;;;;;;;9.64;93.53;101308.97;5076327;28;20122;-72
2023/03/21 06:03:27;;;;;;;19.00;7.80;;;;;;;9.71;91.93;101301.84;5061369;28;20106;-73
2023/03/21 06:05:59;;;;;;;16.33;7.65;;;;;;;9.75;91.39;101303.50;5062646;28;20041;-72
2023/03/21 06:08:33;;;;;;;14.88;7.53;;;;;;;9.78;91.03;101306.94;5062905;28;20037;-72
2023/03/21 06:11:00;;;;;;;18.02;8.07;;;;;;;9.81;90.78;101306.03;5063382;28;20037;-73
2023/03/21 06:13:31;;;;;;;16.38;8.05;;;;;;;9.81;90.21;101306.03;5063842;28;20148;-73
2023/03/21 06:15:59;;;;;;;15.80;8.30;;;;;;;9.82;90.36;101310.38;5063987;28;20509;-72
2023/03/21 06:18:26;;;;;;;14.88;8.35;;;;;;;9.79;89.99;101303.41;5063745;28;20037;-72
2023/03/21 06:21:14;;;;;;;15.65;7.80;;;;;;;9.74;89.90;101309.66;5058391;28;20041;-72
2023/03/21 06:23:42;;;;;;;16.00;8.35;;;;;;;9.67;89.97;101302.78;5046887;28;20775;-72
2023/03/21 06:26:10;;;;;;;20.98;9.18;;;;;;;9.66;90.21;101308.94;5064718;28;20056;-71
2023/03/21 06:28:38;;;;;;;15.00;8.93;;;;;;;9.63;90.11;101308.09;5063811;28;20041;-71
2023/03/21 06:31:06;;;;;;;17.55;9.27;;;;;;;9.63;90.15;101310.72;5061723;28;20041;-72
2023/03/21 06:33:33;;;;;;;16.85;9.02;;;;;;;9.63;90.28;101304.59;5057573;28;20056;-71
2023/03/21 06:36:00;;;;;;;20.35;9.30;;;;;;;9.62;90.43;101310.75;5062967;28;20418;-71
2023/03/21 06:38:28;;;;;;;17.30;9.55;;;;;;;9.62;90.17;101308.13;5056107;28;20080;-71
2023/03/21 06:40:56;;;;;;;15.60;8.00;;;;;;;9.61;90.34;101301.13;5063579;28;20976;-71
2023/03/21 06:43:24;;;;;;;16.58;8.70;;;;;;;9.62;90.47;101302.88;5065512;28;20054;-71
2023/03/21 06:45:51;;;;;;;17.00;8.35;;;;;;;9.61;90.33;101307.25;5062587;28;20044;-71
2023/03/21 06:48:19;;;;;;;18.60;8.90;;;;;;;9.63;90.40;101312.50;5087960;28;20247;-72
2023/03/21 06:50:52;;;;;;;20.27;8.50;;;;;;;9.63;90.27;101308.09;5063516;28;20044;-72
2023/03/21 06:53:26;;;;;;;18.25;8.40;;;;;;;9.66;90.16;101308.94;5063209;28;20509;-72
2023/03/21 06:56:14;;;;;;;14.93;7.70;;;;;;;9.68;90.24;101310.63;5060626;28;20127;-71
2023/03/21 06:58:42;;;;;;;15.25;7.80;;;;;;;9.72;90.11;101308.81;5064776;28;20043;-71
2023/03/21 07:01:17;;;;;;;18.83;7.93;;;;;;;9.74;90.08;101309.66;5068778;28;20051;-72
2023/03/21 07:03:57;;;;;;;16.05;7.18;;;;;;;9.77;90.21;101309.59;5065434;28;20146;-72
2023/03/21 07:06:27;;;;;;;14.10;7.05;;;;;;;9.80;90.09;101306.91;5063400;28;20099;-73
2023/03/21 07:08:55;;;;;;;18.45;7.72;;;;;;;9.83;89.96;101306.84;5061712;28;20037;-72
2023/03/21 07:11:24;;;;;;;17.30;8.02;;;;;;;9.88;89.67;101306.75;5066920;28;20520;-72
2023/03/21 07:13:51;;;;;;;19.55;10.10;;;;;;;9.92;89.77;101301.38;5065654;28;20541;-72
2023/03/21 07:16:20;;;;;;;18.42;9.88;;;;;;;9.95;89.65;101301.34;5081865;28;20038;-72
2023/03/21 07:18:47;;;;;;;14.95;7.97;;;;;;;10.01;89.58;101308.25;5065110;28;20503;-72
2023/03/21 07:21:15;;;;;;;16.45;6.78;;;;;;;10.06;89.44;101301.13;5063244;28;20144;-73
2023/03/21 07:23:43;;;;;;;16.00;6.13;;;;;;;10.14;89.21;101308.84;5063237;28;20044;-72
2023/03/21 07:26:10;;;;;;;13.95;6.03;;;;;;;10.22;89.31;101308.69;5063981;28;20169;-72
2023/03/21 07:28:38;;;;;;;13.85;6.03;;;;;;;10.31;88.89;101315.56;5064652;28;20513;-72
2023/03/21 07:31:07;;;;;;;14.27;7.35;;;;;;;10.37;88.92;101313.69;5064469;28;20048;-72
2023/03/21 07:33:34;;;;;;;17.02;6.50;;;;;;;10.45;89.02;101315.28;5064717;28;20567;-71
2023/03/21 07:36:01;;;;;;;10.68;5.47;;;;;;;10.51;88.61;101310.75;5062209;28;20074;-72
2023/03/21 07:38:29;;;;;;;12.18;5.32;;;;;;;10.61;88.63;101313.16;5064767;28;20057;-72
2023/03/21 07:40:59;;;;;;;10.90;5.53;;;;;;;10.65;88.30;101318.34;5081264;28;20175;-72
2023/03/21 07:43:30;;;;;;;10.57;5.00;;;;;;;10.69;88.20;101329.66;5064571;28;20043;-72
2023/03/21 07:45:58;;;;;;;12.40;5.38;;;;;;;10.69;87.97;101321.75;5066602;28;20045;-72
2023/03/21 07:48:27;;;;;;;10.65;5.57;;;;;;;10.69;87.70;101327.03;5065182;28;20053;-71
2023/03/21 07:50:55;;;;;;;10.38;4.80;;;;;;;10.69;87.69;101324.41;5064731;28;20434;-71
2023/03/21 07:53:22;;;;;;;15.02;5.70;;;;;;;10.70;87.61;101326.97;5065513;28;20045;-72
2023/03/21 07:55:51;;;;;;;9.90;5.10;;;;;;;10.74;87.62;101332.19;5065810;28;20071;-71
2023/03/21 07:58:18;;;;;;;10.18;5.32;;;;;;;10.76;87.64;101330.41;5066480;28;20063;-72
2023/03/21 08:00:45;;;;;;;12.25;5.47;;;;;;;10.81;87.75;101332.03;5069149;28;20128;-71
2023/03/21 08:03:12;;;;;;;12.18;5.38;;;;;;;10.84;87.63;101328.44;5068482;28;20048;-72
2023/03/21 08:05:40;;;;;;;10.48;5.05;;;;;;;10.87;87.43;101336.28;5069676;28;20088;-72
2023/03/21 08:08:08;;;;;;;13.02;5.28;;;;;;;10.88;87.38;101335.41;5070611;28;20046;-71
2023/03/21 08:10:35;;;;;;;14.35;5.38;;;;;;;10.89;87.23;101331.81;5089182;28;20033;-71
2023/03/21 08:13:03;;;;;;;8.95;4.75;;;;;;;10.91;87.40;101339.72;5077096;28;20045;-70
2023/03/21 08:15:30;;;;;;;13.95;5.78;;;;;;;10.89;87.05;101337.09;5065824;28;20048;-70
2023/03/21 08:17:59;;;;;;;11.27;5.45;;;;;;;10.89;86.95;101337.09;5068311;28;20756;-70
2023/03/21 08:20:26;;;;;;;12.52;5.38;;;;;;;10.88;86.96;101333.59;5069825;28;20037;-70
2023/03/21 08:22:54;;;;;;;17.67;5.60;;;;;;;10.88;87.03;101338.03;5066141;28;20045;-70
2023/03/21 08:25:22;;;;;;;16.70;6.10;;;;;;;10.91;87.24;101332.66;5065809;28;20041;-70
2023/03/21 08:27:50;;;;;;;12.45;5.90;;;;;;;10.93;87.29;101320.31;5067989;28;20041;-70
2023/03/21 08:30:21;;;;;;;15.55;6.13;;;;;;;10.97;87.50;101318.47;5069219;28;20048;-70
2023/03/21 08:32:49;;;;;;;15.25;6.30;;;;;;;11.00;87.49;101316.59;5068467;28;20025;-70
2023/03/21 08:35:19;;;;;;;13.70;5.28;;;;;;;11.06;87.68;101322.66;5068993;28;20041;-70
2023/03/21 08:37:47;;;;;;;17.83;6.13;;;;;;;11.10;87.51;101319.00;5068247;28;20060;-70
2023/03/21 08:40:17;;;;;;;14.45;6.03;;;;;;;11.14;87.69;101304.84;5065817;28;20043;-70
2023/03/21 08:42:45;;;;;;;12.13;6.18;;;;;;;11.16;87.75;101301.25;5068250;28;20048;-70
2023/03/21 08:45:16;;;;;;;11.60;5.50;;;;;;;11.22;87.66;101299.38;5069106;28;20131;-71
2023/03/21 08:47:44;;;;;;;13.25;5.90;;;;;;;11.24;87.73;101294.94;5069046;28;20048;-71
2023/03/21 08:50:19;;;;;;;12.00;5.55;;;;;;;11.27;87.48;101298.38;5068819;28;20095;-71
2023/03/21 08:52:47;;;;;;;12.18;4.80;;;;;;;11.32;87.52;101296.47;5076990;28;20190;-70
2023/03/21 08:55:17;;;;;;;13.68;5.55;;;;;;;11.43;87.58;101297.94;5089364;28;20464;-70
2023/03/21 08:57:45;;;;;;;16.08;6.35;;;;;;;11.49;87.48;101289.88;5068380;28;20041;-71
2023/03/21 09:00:16;;;;;;;13.43;6.05;;;;;;;11.59;87.16;101287.84;5069295;28;20057;-71
2023/03/21 09:02:47;;;;;;;12.82;6.20;;;;;;;11.67;87.11;101290.28;5068854;28;20045;-70
2023/03/21 09:05:15;;;;;;;13.48;5.78;;;;;;;11.75;86.78;101293.56;5086419;28;20044;-71
2023/03/21 09:07:44;;;;;;;14.82;6.50;;;;;;;11.76;86.33;101280.31;5089029;28;20056;-70
2023/03/21 09:10:19;;;;;;;13.32;5.65;;;;;;;11.75;86.20;101283.00;5073066;28;20041;-70
2023/03/21 09:12:51;;;;;;;12.73;6.15;;;;;;;11.73;86.20;101287.47;5067627;28;20131;-71
2023/03/21 09:15:20;;;;;;;14.38;6.32;;;;;;;11.68;85.79;101284.09;5068682;28;20103;-71
2023/03/21 09:17:51;;;;;;;10.13;5.43;;;;;;;11.60;85.87;101286.94;5068150;28;20053;-71
2023/03/21 09:20:29;;;;;;;12.48;5.72;;;;;;;11.54;85.95;101287.13;5071019;28;20051;-71
2023/03/21 09:22:58;;;;;;;12.77;5.72;;;;;;;11.46;85.63;101284.69;5077816;28;20072;-70
2023/03/21 09:25:28;;;;;;;10.70;6.13;;;;;;;11.42;86.00;101283.91;5067490;28;20095;-70
2023/03/21 09:27:56;;;;;;;10.38;5.43;;;;;;;11.47;86.12;101275.84;5068457;28;20075;-71
2023/03/21 09:30:24;;;;;;;12.48;5.20;;;;;;;11.52;86.45;101276.56;5067102;28;20045;-71
2023/03/21 09:32:54;;;;;;;10.55;4.57;;;;;;;11.58;86.19;101281.72;5068609;28;20144;-71
2023/03/21 09:35:23;;;;;;;10.88;5.55;;;;;;;11.63;86.28;101274.50;5068696;28;20044;-72
2023/03/21 09:37:50;;;;;;;7.95;4.38;;;;;;;11.67;86.17;101275.28;5067816;28;20053;-71
2023/03/21 09:40:55;;;;;;;11.18;4.88;;;;;;;11.68;86.07;101265.59;5067512;28;20041;-71
2023/03/21 09:43:38;;;;;;;11.00;5.32;;;;;;;11.61;85.94;101264.91;5047033;28;20040;-72
2023/03/21 09:46:16;;;;;;;12.85;5.18;;;;;;;11.58;86.22;101252.66;5058767;28;20041;-72
2023/03/21 09:49:06;;;;;;;13.77;5.68;;;;;;;11.56;86.21;101261.50;5066424;28;20085;-72
2023/03/21 09:51:40;;;;;;;12.50;5.50;;;;;;;11.54;86.55;101252.78;5068237;28;20053;-72
2023/03/21 09:54:25;;;;;;;10.93;5.57;;;;;;;11.55;86.79;101244.81;5068226;28;20124;-72
2023/03/21 09:56:59;;;;;;;14.10;5.85;;;;;;;11.62;86.68;101246.38;5067140;28;20836;-72
2023/03/21 09:59:40;;;;;;;9.93;5.15;;;;;;;11.69;86.87;101244.44;5064647;28;20061;-72
2023/03/21 10:02:46;;;;;;;14.02;5.95;;;;;;;11.83;86.45;101243.16;5075596;28;20045;-72
2023/03/21 10:05:19;;;;;;;11.85;5.63;;;;;;;11.92;86.69;101235.81;5046562;28;20065;-72
2023/03/21 10:08:06;;;;;;;9.68;5.70;;;;;;;12.06;85.98;101234.59;5057970;28;20075;-72
2023/03/21 10:11:02;;;;;;;10.32;5.65;;;;;;;12.22;85.58;101235.00;5067812;28;20112;-72
2023/03/21 10:13:39;;;;;;;11.90;5.40;;;;;;;12.32;85.19;101225.84;5066653;28;20045;-72
2023/03/21 10:16:16;;;;;;;11.48;5.20;;;;;;;12.39;84.89;101218.59;5076267;28;20037;-71
2023/03/21 10:18:45;;;;;;;12.98;5.60;;;;;;;12.43;84.20;101223.75;5064752;28;20535;-73
2023/03/21 10:21:21;;;;;;;11.32;5.32;;;;;;;12.46;83.52;101219.28;5067670;28;20067;-73
2023/03/21 10:24:17;;;;;;;11.13;4.80;;;;;;;12.51;83.79;101212.03;5067337;28;20049;-72
2023/03/21 10:26:46;;;;;;;9.70;5.03;;;;;;;12.54;83.41;101219.88;5066806;28;20041;-72
2023/03/21 10:29:17;;;;;;;11.70;4.97;;;;;;;12.56;82.64;101210.97;5067830;28;20048;-73
2023/03/21 10:31:46;;;;;;;10.25;4.80;;;;;;;12.60;82.52;101200.31;5087429;28;20118;-73
2023/03/21 10:34:30;;;;;;;9.35;4.57;;;;;;;12.70;82.06;101199.09;5087355;28;20124;-72
2023/03/21 10:37:00;;;;;;;8.85;4.18;;;;;;;12.74;82.02;101196.28;5086021;28;20050;-72
2023/03/21 10:39:46;;;;;;;8.82;4.35;;;;;;;12.80;81.87;101196.97;5087555;28;20041;-72
2023/03/21 10:42:28;;;;;;;10.30;4.47;;;;;;;12.86;81.28;101196.78;5087724;28;20041;-72
2023/03/21 10:44:56;;;;;;;9.73;4.00;;;;;;;12.87;81.01;101194.09;5087187;28;20040;-73
2023/03/21 10:47:28;;;;;;;9.40;4.28;;;;;;;12.91;81.48;101197.47;5076935;28;20126;-73
2023/03/21 10:50:12;;;;;;;11.70;4.93;;;;;;;12.99;80.13;101189.28;5066779;28;20036;-72
2023/03/21 10:52:50;;;;;;;9.38;4.53;;;;;;;12.99;80.08;101174.25;5067413;28;20099;-73
2023/03/21 10:55:33;;;;;;;8.55;5.03;;;;;;;13.03;80.08;101185.59;5066866;28;20588;-73
2023/03/21 10:58:09;;;;;;;12.85;5.65;;;;;;;13.04;80.26;101185.56;5065996;28;20064;-73
2023/03/21 11:00:40;;;;;;;9.13;4.38;;;;;;;13.09;79.94;101180.09;5066833;28;20128;-73
2023/03/21 11:03:42;;;;;;;14.38;8.32;;;;;;;13.12;79.51;101179.13;5066841;28;20124;-72
2023/03/21 11:06:32;;;;;;;11.18;5.20;;;;;;;13.14;79.29;101177.28;5066917;28;20071;-73
2023/03/21 11:09:16;;;;;;;11.82;5.22;;;;;;;13.20;79.37;101183.25;5070172;28;20540;-73
2023/03/21 11:12:03;;;;;;;18.65;8.82;;;;;;;13.28;78.97;101174.16;5074412;28;20100;-73
2023/03/21 11:14:40;;;;;;;14.35;6.18;;;;;;;13.35;78.91;101183.59;5074634;28;21078;-73
2023/03/21 11:17:16;;;;;;;10.55;3.97;;;;;;;13.39;77.71;101190.53;5069039;28;20052;-73
2023/03/21 11:20:04;;;;;;;9.13;4.45;;;;;;;13.39;77.14;101197.56;5064682;28;20045;-72
2023/03/21 11:22:41;;;;;;;9.63;3.92;;;;;;;13.44;77.06;101203.63;5063723;28;20791;-72
2023/03/21 11:25:37;;;;;;;8.50;3.90;;;;;;;13.60;77.05;101185.38;5065805;28;20772;-72
2023/03/21 11:28:16;;;;;;;10.85;4.88;;;;;;;13.85;76.37;101195.03;5064704;28;20053;-72
2023/03/21 11:30:56;;;;;;;9.90;3.90;;;;;;;13.95;74.91;101185.78;5057710;28;20052;-72
2023/03/21 11:33:35;;;;;;;8.00;3.63;;;;;;;13.97;75.46;101192.78;5066880;28;20047;-72
2023/03/21 11:36:17;;;;;;;8.85;3.50;;;;;;;14.01;75.19;101179.38;5065537;28;20060;-73
2023/03/21 11:38:53;;;;;;;10.68;5.03;;;;;;;14.02;74.72;101179.34;5069131;28;20060;-71
2023/03/21 11:41:33;;;;;;;9.85;4.80;;;;;;;14.07;74.61;101169.41;5069343;28;20029;-71
2023/03/21 11:44:01;;;;;;;17.88;8.85;;;;;;;14.17;75.05;101171.69;5069922;28;20033;-71
2023/03/21 11:46:38;;;;;;;8.55;4.40;;;;;;;14.34;73.90;101171.91;5068974;28;20128;-71
2023/03/21 11:49:09;;;;;;;11.65;6.10;;;;;;;14.38;73.37;101170.81;5066566;28;20134;-71
2023/03/21 11:51:51;;;;;;;14.30;6.95;;;;;;;14.48;73.10;101159.84;5076395;28;20127;-71
2023/03/21 11:54:34;;;;;;;9.52;4.80;;;;;;;14.58;73.31;101159.41;5068850;28;20064;-71
2023/03/21 11:57:11;;;;;;;11.27;4.70;;;;;;;14.66;72.16;101158.22;5069873;28;20541;-71
2023/03/21 11:59:56;;;;;;;12.73;5.43;;;;;;;14.72;71.74;101165.91;5068549;28;20057;-71
2023/03/21 12:03:21;;;;;;;9.55;3.97;;;;;;;14.73;71.43;101163.22;5066817;28;20446;-71
2023/03/21 12:06:06;;;;;;;7.13;3.97;;;;;;;14.76;71.68;101154.25;5067115;28;20049;-72
2023/03/21 12:08:53;;;;;;;8.85;3.42;;;;;;;14.87;71.35;101151.13;5059055;28;20126;-71
2023/03/21 12:11:44;;;;;;;9.35;3.33;;;;;;;15.00;70.47;101141.72;5069737;28;20044;-72
2023/03/21 12:14:38;;;;;;;8.32;3.10;;;;;;;15.10;70.28;101131.56;5068307;28;20053;-71
2023/03/21 12:17:51;;;;;;;12.52;4.15;;;;;;;15.21;69.48;101137.22;5067243;28;20041;-71
2023/03/21 12:20:58;;;;;;;10.35;3.40;;;;;;;15.28;68.68;101129.00;5053075;28;20053;-71